Bonpas, Illinois
Current Conditions -  °F | °C
As of 10:35 AM on Wednesday 26 Nov 2014 (Local Time) from KOLY Reporting Station
Scattered Clouds Scattered Clouds  
Wind Chill: -4°   Ceiling: Unl
Heat Index:   Visibility: 10mi
Dew Point: -2°   Wind: 7mph
Humidity: 87%   Direction: 130°SE
Pressure: 30.12"   Gusts: NA
Location:  38.6228°N, 87.9781°W
Report Text: KOLY 261635Z AUTO 13006KT 10SM SCT012 00/M02 A3012 RMK AO2
Loading
Personal Weather Stations






























Interactive Weather Map New forecast layout! Learn more

10-Day Weather Forecast

Advertisements
Track Severe Weather on mobile